createdAt,value
2023-03-10T00:00:16.226Z,50.75
2023-03-10T00:02:49.434Z,50.21
2023-03-10T00:05:17.797Z,50.32
2023-03-10T00:07:44.775Z,51.06
2023-03-10T00:10:15.130Z,50.46
2023-03-10T00:12:41.935Z,49.74
2023-03-10T00:15:09.910Z,48.56
2023-03-10T00:17:37.417Z,48.39
2023-03-10T00:20:11.577Z,47.99
2023-03-10T00:22:41.974Z,49.27
2023-03-10T00:25:10.385Z,49.39
2023-03-10T00:27:37.082Z,49.27
2023-03-10T00:30:05.026Z,49.43
2023-03-10T00:32:31.722Z,49.27
2023-03-10T00:34:58.352Z,51.11
2023-03-10T00:37:24.979Z,49.67
2023-03-10T00:39:52.668Z,49.92
2023-03-10T00:42:19.939Z,50.76
2023-03-10T00:44:47.247Z,51.59
2023-03-10T00:47:13.903Z,51.94
2023-03-10T00:49:40.530Z,55.37
2023-03-10T00:52:07.196Z,52.32
2023-03-10T00:54:33.849Z,52.49
2023-03-10T00:57:00.473Z,51.30
2023-03-10T00:59:28.365Z,52.52
2023-03-10T01:01:56.212Z,51.54
2023-03-10T01:04:23.058Z,51.36
2023-03-10T01:06:49.781Z,51.00
2023-03-10T01:09:18.054Z,51.17
2023-03-10T01:11:44.869Z,51.88
2023-03-10T01:14:13.624Z,51.49
2023-03-10T01:16:40.353Z,51.58
2023-03-10T01:19:07.008Z,51.32
2023-03-10T01:21:36.715Z,53.44
2023-03-10T01:24:04.856Z,52.58
2023-03-10T01:26:31.735Z,53.91
2023-03-10T01:28:58.573Z,53.30
2023-03-10T01:31:25.306Z,56.81
2023-03-10T01:33:51.997Z,59.09
2023-03-10T01:36:26.243Z,57.04
2023-03-10T01:38:55.348Z,54.92
2023-03-10T01:41:23.320Z,54.83
2023-03-10T01:43:52.541Z,54.49
2023-03-10T01:46:28.199Z,54.50
2023-03-10T01:49:06.158Z,55.16
2023-03-10T01:51:35.254Z,54.07
2023-03-10T01:54:05.666Z,53.43
2023-03-10T01:56:32.419Z,53.52
2023-03-10T01:58:59.371Z,53.52
2023-03-10T02:01:26.060Z,54.14
2023-03-10T02:04:00.340Z,54.75
2023-03-10T02:06:27.740Z,54.11
2023-03-10T02:08:58.540Z,57.40
2023-03-10T02:11:25.605Z,57.58
2023-03-10T02:13:53.075Z,56.58
2023-03-10T02:16:20.034Z,55.36
2023-03-10T02:18:47.849Z,55.09
2023-03-10T02:21:14.420Z,54.70
2023-03-10T02:24:00.984Z,54.34
2023-03-10T02:26:43.407Z,53.98
2023-03-10T02:29:17.877Z,53.80
2023-03-10T02:31:45.829Z,53.85
2023-03-10T02:34:13.080Z,53.86
2023-03-10T02:36:39.762Z,53.78
2023-03-10T02:39:06.375Z,53.86
2023-03-10T02:41:38.742Z,54.40
2023-03-10T02:44:09.740Z,57.56
2023-03-10T02:46:36.706Z,56.08
2023-03-10T02:49:06.166Z,56.09
2023-03-10T02:51:39.391Z,55.56
2023-03-10T02:54:08.252Z,55.15
2023-03-10T02:56:35.829Z,55.51
2023-03-10T02:59:04.278Z,55.47
2023-03-10T03:01:31.963Z,58.06
2023-03-10T03:03:59.610Z,60.11
2023-03-10T03:06:26.441Z,59.12
2023-03-10T03:08:53.103Z,57.86
2023-03-10T03:11:20.155Z,57.13
2023-03-10T03:13:46.870Z,56.14
2023-03-10T03:16:13.830Z,56.29
2023-03-10T03:18:40.895Z,56.02
2023-03-10T03:21:15.842Z,56.38
2023-03-10T03:23:42.893Z,56.38
2023-03-10T03:26:22.079Z,56.80
2023-03-10T03:28:49.027Z,56.45
2023-03-10T03:31:19.874Z,57.45
2023-03-10T03:33:46.945Z,57.98
2023-03-10T03:36:13.791Z,56.61
2023-03-10T03:38:40.855Z,55.93
2023-03-10T03:41:07.992Z,55.70
2023-03-10T03:43:34.654Z,55.41
2023-03-10T03:46:02.230Z,55.36
2023-03-10T03:48:28.952Z,55.17
2023-03-10T03:50:55.587Z,55.27
2023-03-10T03:53:22.236Z,55.07
2023-03-10T03:55:49.991Z,55.25
2023-03-10T03:58:16.901Z,55.67
2023-03-10T04:00:43.539Z,56.03
2023-03-10T04:03:10.209Z,55.87
2023-03-10T04:05:36.930Z,55.91
2023-03-10T04:08:03.924Z,55.64
2023-03-10T04:10:31.379Z,55.64
2023-03-10T04:12:58.708Z,55.51
2023-03-10T04:15:25.749Z,55.29
2023-03-10T04:17:52.358Z,55.30
2023-03-10T04:20:19.119Z,55.47
2023-03-10T04:22:45.836Z,55.68
2023-03-10T04:25:12.733Z,55.60
2023-03-10T04:27:39.415Z,55.69
2023-03-10T04:30:07.265Z,55.45
2023-03-10T04:32:34.205Z,55.30
2023-03-10T04:35:02.278Z,55.27
2023-03-10T04:37:29.068Z,55.45
2023-03-10T04:39:57.165Z,55.39
2023-03-10T04:42:24.220Z,55.10
2023-03-10T04:44:52.101Z,55.23
2023-03-10T04:47:18.768Z,55.29
2023-03-10T04:49:45.848Z,55.16
2023-03-10T04:52:12.733Z,58.65
2023-03-10T04:54:39.444Z,59.47
2023-03-10T04:57:06.096Z,57.69
2023-03-10T04:59:36.334Z,58.34
2023-03-10T05:02:15.636Z,57.40
2023-03-10T05:04:43.972Z,56.84
2023-03-10T05:07:10.673Z,56.76
2023-03-10T05:09:38.094Z,56.96
2023-03-10T05:12:06.630Z,56.85
2023-03-10T05:14:33.237Z,56.83
2023-03-10T05:16:59.790Z,56.71
2023-03-10T05:19:26.524Z,56.69
2023-03-10T05:21:53.737Z,56.33
2023-03-10T05:24:29.366Z,56.36
2023-03-10T05:26:56.228Z,56.42
2023-03-10T05:29:26.579Z,56.50
2023-03-10T05:31:53.260Z,56.34
2023-03-10T05:34:19.903Z,56.46
2023-03-10T05:36:46.513Z,56.55
2023-03-10T05:39:15.621Z,56.64
2023-03-10T05:41:42.330Z,56.42
2023-03-10T05:44:16.004Z,56.28
2023-03-10T05:46:42.795Z,56.23
2023-03-10T05:49:09.526Z,55.96
2023-03-10T05:51:36.157Z,55.96
2023-03-10T05:54:02.970Z,55.97
2023-03-10T05:56:29.952Z,55.99
2023-03-10T05:58:56.640Z,56.22
2023-03-10T06:01:23.312Z,56.72
2023-03-10T06:03:49.984Z,56.38
2023-03-10T06:06:16.712Z,56.73
2023-03-10T06:08:43.460Z,56.71
2023-03-10T06:11:10.181Z,56.76
2023-03-10T06:13:36.746Z,57.30
2023-03-10T06:16:06.712Z,57.45
2023-03-10T06:18:34.520Z,56.61
2023-03-10T06:21:05.187Z,56.54
2023-03-10T06:23:31.774Z,56.49
2023-03-10T06:26:00.890Z,55.91
2023-03-10T06:28:33.119Z,55.94
2023-03-10T06:31:02.226Z,55.40
2023-03-10T06:33:30.089Z,55.52
2023-03-10T06:35:57.117Z,55.40
2023-03-10T06:38:24.722Z,55.16
2023-03-10T06:40:51.487Z,54.82
2023-03-10T06:43:18.254Z,54.96
2023-03-10T06:45:46.281Z,55.07
2023-03-10T06:48:14.639Z,54.82
2023-03-10T06:50:48.092Z,55.24
2023-03-10T06:53:16.318Z,55.58
2023-03-10T06:55:43.006Z,55.31
2023-03-10T06:58:09.662Z,56.02
2023-03-10T07:00:36.361Z,55.55
2023-03-10T07:03:03.064Z,56.46
2023-03-10T07:05:29.670Z,57.92
2023-03-10T07:07:56.564Z,56.66
2023-03-10T07:10:23.479Z,56.94
2023-03-10T07:12:55.212Z,56.46
2023-03-10T07:15:25.705Z,55.30
2023-03-10T07:17:52.794Z,56.06
2023-03-10T07:20:19.484Z,56.62
2023-03-10T07:22:46.080Z,56.26
2023-03-10T07:25:12.736Z,56.12
2023-03-10T07:27:39.463Z,58.94
2023-03-10T07:30:07.461Z,57.58
2023-03-10T07:32:34.642Z,56.43
2023-03-10T07:35:02.185Z,55.99
2023-03-10T07:37:28.775Z,55.43
2023-03-10T07:39:55.522Z,57.01
2023-03-10T07:42:22.497Z,56.92
2023-03-10T07:44:49.423Z,56.72
2023-03-10T07:47:16.085Z,56.34
2023-03-10T07:49:46.882Z,55.07
2023-03-10T07:52:15.470Z,54.33
2023-03-10T07:54:44.273Z,55.43
2023-03-10T07:57:12.507Z,53.81
2023-03-10T07:59:39.165Z,54.32
2023-03-10T08:02:06.430Z,53.71
2023-03-10T08:04:33.774Z,58.19
2023-03-10T08:07:02.336Z,56.80
2023-03-10T08:09:29.994Z,56.42
2023-03-10T08:11:58.887Z,55.42
2023-03-10T08:14:27.355Z,54.42
2023-03-10T08:16:56.580Z,53.11
2023-03-10T08:19:24.702Z,54.28
2023-03-10T08:21:52.154Z,53.84
2023-03-10T08:24:18.923Z,57.53
2023-03-10T08:26:45.529Z,54.71
2023-03-10T08:29:12.217Z,55.21
2023-03-10T08:31:39.016Z,54.92
2023-03-10T08:34:05.645Z,56.10
2023-03-10T08:36:32.612Z,57.66
2023-03-10T08:39:05.580Z,55.06
2023-03-10T08:41:38.876Z,53.72
2023-03-10T08:44:06.487Z,53.40
2023-03-10T08:46:33.703Z,53.58
2023-03-10T08:49:01.051Z,54.05
2023-03-10T08:51:28.573Z,52.28
2023-03-10T08:53:55.360Z,53.31
2023-03-10T08:56:23.702Z,53.38
2023-03-10T08:58:50.696Z,52.96
2023-03-10T09:01:18.021Z,51.37
2023-03-10T09:03:45.668Z,53.41
2023-03-10T09:06:13.745Z,53.33
2023-03-10T09:08:41.371Z,52.46
2023-03-10T09:11:09.794Z,52.51
2023-03-10T09:13:36.433Z,53.12
2023-03-10T09:16:03.118Z,51.73
2023-03-10T09:18:30.054Z,52.62
2023-03-10T09:20:56.970Z,54.17
2023-03-10T09:23:23.724Z,52.29
2023-03-10T09:25:50.374Z,50.25
2023-03-10T09:28:18.753Z,52.51
2023-03-10T09:30:46.434Z,49.78
2023-03-10T09:33:19.045Z,50.17
2023-03-10T09:35:52.884Z,50.80
2023-03-10T09:38:29.972Z,50.85
2023-03-10T09:41:24.242Z,51.48
2023-03-10T09:44:07.703Z,51.33
2023-03-10T09:47:02.249Z,50.35
2023-03-10T09:49:39.169Z,50.04
2023-03-10T09:52:23.920Z,50.03
2023-03-10T09:55:00.216Z,50.65
2023-03-10T09:57:27.998Z,50.11
2023-03-10T10:00:00.600Z,50.91
2023-03-10T10:02:35.403Z,51.13
2023-03-10T10:05:12.665Z,51.70
2023-03-10T10:07:52.808Z,52.12
2023-03-10T10:10:32.830Z,50.45
2023-03-10T10:13:07.577Z,50.66
2023-03-10T10:15:38.231Z,49.52
2023-03-10T10:18:26.986Z,49.75
2023-03-10T10:21:06.104Z,49.69
2023-03-10T10:23:47.190Z,49.07
2023-03-10T10:26:16.811Z,48.13
2023-03-10T10:28:50.737Z,49.57
2023-03-10T10:31:21.489Z,50.57
2023-03-10T10:34:21.579Z,48.63
2023-03-10T10:36:52.072Z,48.43
2023-03-10T10:39:41.551Z,48.02
2023-03-10T10:42:32.844Z,48.06
2023-03-10T10:45:19.242Z,48.77
2023-03-10T10:47:51.391Z,48.20
2023-03-10T10:50:26.831Z,48.72
2023-03-10T10:53:16.658Z,49.04
2023-03-10T10:55:45.755Z,50.39
2023-03-10T10:58:33.716Z,50.63
2023-03-10T11:01:03.771Z,51.50
2023-03-10T11:03:33.314Z,50.50
2023-03-10T11:06:02.229Z,52.78
2023-03-10T11:08:32.960Z,55.29
2023-03-10T11:11:16.829Z,56.66
2023-03-10T11:13:52.396Z,56.41
2023-03-10T11:16:27.950Z,56.69
2023-03-10T11:19:33.273Z,57.38
2023-03-10T11:22:07.264Z,58.52
2023-03-10T11:24:48.024Z,57.59
2023-03-10T11:27:17.172Z,57.56
2023-03-10T11:29:43.960Z,60.03
2023-03-10T11:32:24.211Z,64.85
2023-03-10T11:34:54.128Z,65.81
2023-03-10T11:37:25.007Z,65.42
2023-03-10T11:40:11.616Z,65.35
2023-03-10T11:42:44.721Z,66.95
2023-03-10T11:45:35.578Z,60.50
2023-03-10T11:48:04.938Z,61.77
2023-03-10T11:50:56.099Z,62.85
2023-03-10T11:53:28.725Z,64.68
2023-03-10T11:55:58.225Z,62.91
2023-03-10T11:58:32.583Z,60.28
2023-03-10T12:01:00.632Z,57.99
2023-03-10T12:04:04.456Z,58.69
2023-03-10T12:06:53.110Z,55.76
2023-03-10T12:09:34.400Z,53.26
2023-03-10T12:12:04.040Z,54.20
2023-03-10T12:14:32.290Z,56.50
2023-03-10T12:17:00.775Z,55.95
2023-03-10T12:19:27.390Z,54.99
2023-03-10T12:22:24.946Z,56.33
2023-03-10T12:24:53.094Z,55.67
2023-03-10T12:27:19.812Z,57.44
2023-03-10T12:29:46.638Z,57.96
2023-03-10T12:32:43.744Z,60.73
2023-03-10T12:35:36.674Z,58.97
2023-03-10T12:38:28.741Z,58.25
2023-03-10T12:40:55.989Z,57.29
2023-03-10T12:43:47.364Z,57.25
2023-03-10T12:46:21.727Z,58.43
2023-03-10T12:49:02.935Z,57.12
2023-03-10T12:51:48.349Z,57.76
2023-03-10T12:54:44.404Z,56.97
2023-03-10T12:57:30.867Z,55.50
2023-03-10T13:00:28.384Z,54.95
2023-03-10T13:03:11.186Z,55.74
2023-03-10T13:05:41.894Z,55.92
2023-03-10T13:08:25.114Z,54.09
2023-03-10T13:10:56.456Z,54.06
2023-03-10T13:13:30.354Z,53.55
2023-03-10T13:15:59.808Z,51.98
2023-03-10T13:18:26.683Z,51.38
2023-03-10T13:20:53.393Z,52.95
2023-03-10T13:23:29.631Z,52.64
2023-03-10T13:26:02.259Z,53.67
2023-03-10T13:28:31.782Z,51.53
2023-03-10T13:31:19.815Z,51.46
2023-03-10T13:33:53.234Z,50.45
2023-03-10T13:36:35.495Z,50.59
2023-03-10T13:39:23.478Z,50.37
2023-03-10T13:41:54.359Z,50.84
2023-03-10T13:44:24.433Z,48.22
2023-03-10T13:46:53.834Z,47.39
2023-03-10T13:49:25.669Z,47.24
2023-03-10T13:52:00.716Z,47.68
2023-03-10T13:54:38.228Z,48.94
2023-03-10T13:57:26.649Z,50.43
2023-03-10T13:59:55.605Z,49.18
2023-03-10T14:02:33.318Z,47.43
2023-03-10T14:05:01.017Z,46.20
2023-03-10T14:07:29.085Z,48.08
2023-03-10T14:10:04.635Z,48.21
2023-03-10T14:12:52.707Z,47.37
2023-03-10T14:15:19.364Z,47.25
2023-03-10T14:18:07.853Z,47.24
2023-03-10T14:20:38.362Z,45.78
2023-03-10T14:23:21.524Z,45.88
2023-03-10T14:25:50.799Z,44.96
2023-03-10T14:28:30.790Z,46.01
2023-03-10T14:30:58.830Z,45.60
2023-03-10T14:33:25.495Z,45.14
2023-03-10T14:35:52.230Z,46.85
2023-03-10T14:38:18.907Z,46.77
2023-03-10T14:40:48.856Z,46.53
2023-03-10T14:43:22.046Z,46.55
2023-03-10T14:45:50.861Z,46.43
2023-03-10T14:48:20.282Z,47.63
2023-03-10T14:50:47.493Z,48.84
2023-03-10T14:53:20.169Z,47.93
2023-03-10T14:55:50.635Z,50.19
2023-03-10T14:58:22.326Z,49.17
2023-03-10T15:00:50.344Z,47.74
2023-03-10T15:03:17.405Z,49.74
2023-03-10T15:05:48.755Z,51.89
2023-03-10T15:08:17.061Z,52.38
2023-03-10T15:10:50.667Z,58.63
2023-03-10T15:13:18.806Z,66.06
2023-03-10T15:15:47.400Z,70.26
2023-03-10T15:18:19.757Z,74.51
2023-03-10T15:20:47.136Z,74.83
2023-03-10T15:23:17.576Z,75.13
2023-03-10T15:25:46.170Z,74.98
2023-03-10T15:28:13.406Z,72.75
2023-03-10T15:30:40.052Z,73.75
2023-03-10T15:33:06.691Z,73.46
2023-03-10T15:35:33.545Z,75.05
2023-03-10T15:38:00.197Z,74.06
2023-03-10T15:40:30.098Z,74.08
2023-03-10T15:42:58.330Z,74.00
2023-03-10T15:45:27.897Z,72.76
2023-03-10T15:47:54.633Z,70.31
2023-03-10T15:50:21.912Z,72.35
2023-03-10T15:52:50.727Z,73.28
2023-03-10T15:55:17.427Z,71.61
2023-03-10T15:57:45.073Z,73.09
2023-03-10T16:00:12.772Z,67.93
2023-03-10T16:02:39.538Z,67.48
2023-03-10T16:05:06.973Z,67.47
2023-03-10T16:07:33.729Z,69.77
2023-03-10T16:10:00.327Z,69.80
2023-03-10T16:12:27.465Z,69.17
2023-03-10T16:14:55.506Z,68.08
2023-03-10T16:17:23.250Z,69.87
2023-03-10T16:19:50.259Z,67.81
2023-03-10T16:22:17.184Z,65.63
2023-03-10T16:24:43.821Z,65.58
2023-03-10T16:27:10.591Z,63.90
2023-03-10T16:29:40.142Z,62.77
2023-03-10T16:32:10.255Z,63.15
2023-03-10T16:34:36.954Z,62.73
2023-03-10T16:37:04.008Z,64.32
2023-03-10T16:39:33.073Z,62.00
2023-03-10T16:42:03.330Z,61.98
2023-03-10T16:44:29.977Z,61.91
2023-03-10T16:46:56.612Z,61.06
2023-03-10T16:49:23.255Z,60.82
2023-03-10T16:51:49.818Z,64.53
2023-03-10T16:54:22.152Z,64.67
2023-03-10T16:56:51.165Z,64.41
2023-03-10T16:59:22.824Z,66.30
2023-03-10T17:01:50.199Z,65.68
2023-03-10T17:04:17.445Z,64.05
2023-03-10T17:06:44.894Z,63.17
2023-03-10T17:09:13.095Z,62.96
2023-03-10T17:11:44.051Z,64.43
2023-03-10T17:14:14.266Z,69.35
2023-03-10T17:16:41.777Z,69.46
2023-03-10T17:19:12.824Z,69.44
2023-03-10T17:21:44.069Z,69.91
2023-03-10T17:24:10.780Z,72.52
2023-03-10T17:26:37.361Z,70.90
2023-03-10T17:29:04.513Z,72.69
2023-03-10T17:31:31.619Z,72.28
2023-03-10T17:34:03.419Z,73.90
2023-03-10T17:36:30.679Z,70.42
2023-03-10T17:38:59.823Z,70.52
2023-03-10T17:41:27.196Z,70.89
2023-03-10T17:43:54.965Z,68.60
2023-03-10T17:46:24.445Z,68.19
2023-03-10T17:48:52.728Z,71.42
2023-03-10T17:51:25.129Z,72.36
2023-03-10T17:53:52.651Z,76.35
2023-03-10T17:56:19.906Z,78.34
2023-03-10T17:58:48.316Z,77.45
2023-03-10T18:01:27.398Z,79.24
2023-03-10T18:03:58.641Z,79.78
2023-03-10T18:06:28.602Z,76.14
2023-03-10T18:08:57.029Z,75.65
2023-03-10T18:11:24.539Z,75.69
2023-03-10T18:13:51.790Z,74.21
2023-03-10T18:16:21.514Z,72.06
2023-03-10T18:18:48.433Z,71.46
2023-03-10T18:21:16.688Z,71.57
2023-03-10T18:23:43.936Z,73.46
2023-03-10T18:26:12.986Z,72.20
2023-03-10T18:28:40.328Z,72.29
2023-03-10T18:31:17.853Z,70.70
2023-03-10T18:33:44.525Z,70.05
2023-03-10T18:36:13.774Z,73.33
2023-03-10T18:38:41.123Z,75.99
2023-03-10T18:41:07.933Z,75.95
2023-03-10T18:43:35.186Z,76.17
2023-03-10T18:46:02.243Z,74.69
2023-03-10T18:48:29.091Z,75.26
2023-03-10T18:50:58.377Z,76.65
2023-03-10T18:53:26.499Z,75.13
2023-03-10T18:55:53.667Z,72.49
2023-03-10T18:58:20.830Z,72.15
2023-03-10T19:00:47.968Z,71.38
2023-03-10T19:03:15.260Z,72.01
2023-03-10T19:05:42.471Z,72.59
2023-03-10T19:08:10.399Z,72.62
2023-03-10T19:10:39.338Z,72.94
2023-03-10T19:13:07.648Z,71.28
2023-03-10T19:15:36.647Z,70.75
2023-03-10T19:18:03.912Z,71.80
2023-03-10T19:20:30.865Z,71.30
2023-03-10T19:22:57.491Z,70.37
2023-03-10T19:25:24.286Z,70.11
2023-03-10T19:27:50.949Z,70.58
2023-03-10T19:30:22.628Z,69.54
2023-03-10T19:32:51.091Z,69.36
2023-03-10T19:35:20.385Z,68.53
2023-03-10T19:37:49.649Z,68.88
2023-03-10T19:40:19.770Z,69.10
2023-03-10T19:42:47.085Z,68.84
2023-03-10T19:45:17.228Z,69.83
2023-03-10T19:47:45.085Z,69.95
2023-03-10T19:50:14.622Z,71.14
2023-03-10T19:52:46.326Z,72.55
2023-03-10T19:55:16.912Z,72.45
2023-03-10T19:57:43.598Z,71.70
2023-03-10T20:00:13.947Z,73.09
2023-03-10T20:02:44.613Z,76.55
2023-03-10T20:05:14.111Z,75.98
2023-03-10T20:07:42.724Z,77.06
2023-03-10T20:10:09.929Z,80.34
2023-03-10T20:12:36.804Z,77.34
2023-03-10T20:15:06.944Z,77.24
2023-03-10T20:17:34.494Z,74.51
2023-03-10T20:20:01.185Z,76.58
2023-03-10T20:22:27.879Z,74.79
2023-03-10T20:24:54.520Z,78.55
2023-03-10T20:27:23.115Z,77.17
2023-03-10T20:29:49.958Z,75.53
2023-03-10T20:32:16.727Z,73.65
2023-03-10T20:34:43.309Z,77.24
2023-03-10T20:37:10.003Z,80.54
2023-03-10T20:39:36.594Z,76.38
2023-03-10T20:42:03.297Z,77.27
2023-03-10T20:44:29.913Z,74.35
2023-03-10T20:46:56.548Z,72.88
2023-03-10T20:49:23.139Z,73.54
2023-03-10T20:51:49.791Z,75.24
2023-03-10T20:54:16.487Z,73.63
2023-03-10T20:56:43.093Z,72.74
2023-03-10T20:59:10.587Z,74.37
2023-03-10T21:01:39.865Z,78.84
2023-03-10T21:04:06.792Z,76.65
2023-03-10T21:06:33.722Z,78.89
2023-03-10T21:09:05.859Z,76.44
2023-03-10T21:11:35.822Z,77.91
2023-03-10T21:14:02.423Z,77.56
2023-03-10T21:16:29.228Z,76.68
2023-03-10T21:18:55.984Z,74.97
2023-03-10T21:21:22.667Z,82.61
2023-03-10T21:23:49.984Z,77.98
2023-03-10T21:26:21.464Z,79.06
2023-03-10T21:28:48.463Z,78.16
2023-03-10T21:31:15.364Z,77.86
2023-03-10T21:33:42.091Z,79.19
2023-03-10T21:36:16.308Z,77.71
2023-03-10T21:38:43.446Z,76.07
2023-03-10T21:41:12.261Z,75.58
2023-03-10T21:43:38.850Z,75.70
2023-03-10T21:46:06.526Z,78.08
2023-03-10T21:48:33.252Z,82.25
2023-03-10T21:50:59.847Z,80.40
2023-03-10T21:53:26.864Z,81.51
2023-03-10T21:55:54.368Z,79.29
2023-03-10T21:58:23.561Z,79.04
2023-03-10T22:00:50.546Z,77.57
2023-03-10T22:03:22.130Z,79.69
2023-03-10T22:05:49.102Z,83.49
2023-03-10T22:08:15.848Z,83.45
2023-03-10T22:10:42.506Z,82.69
2023-03-10T22:13:09.237Z,86.19
2023-03-10T22:15:35.849Z,84.49
2023-03-10T22:18:02.579Z,82.81
2023-03-10T22:20:29.514Z,81.67
2023-03-10T22:22:57.260Z,78.57
2023-03-10T22:25:24.473Z,78.01
2023-03-10T22:27:54.546Z,77.47
2023-03-10T22:30:22.865Z,75.88
2023-03-10T22:32:49.882Z,76.76
2023-03-10T22:35:17.369Z,76.67
2023-03-10T22:37:44.137Z,78.00
2023-03-10T22:40:16.300Z,83.09
2023-03-10T22:42:44.611Z,78.33
2023-03-10T22:45:26.431Z,77.12
2023-03-10T22:47:56.286Z,78.91
2023-03-10T22:50:34.953Z,77.90
2023-03-10T22:53:03.471Z,75.51
2023-03-10T22:55:35.759Z,78.60
2023-03-10T22:58:07.465Z,76.35
2023-03-10T23:00:34.620Z,76.18
2023-03-10T23:03:01.812Z,74.16
2023-03-10T23:05:28.593Z,74.25
2023-03-10T23:07:55.450Z,73.56
2023-03-10T23:10:27.535Z,74.20
2023-03-10T23:12:55.228Z,75.30
2023-03-10T23:15:27.425Z,78.68
2023-03-10T23:17:55.351Z,77.03
2023-03-10T23:20:27.078Z,75.32
2023-03-10T23:22:55.086Z,73.71
2023-03-10T23:25:29.183Z,74.57
2023-03-10T23:27:56.962Z,76.04
2023-03-10T23:30:23.964Z,77.34
2023-03-10T23:32:51.554Z,77.11
2023-03-10T23:35:21.727Z,77.67
2023-03-10T23:37:48.354Z,75.57
2023-03-10T23:40:18.960Z,74.64
2023-03-10T23:42:46.200Z,74.80
2023-03-10T23:45:16.650Z,76.82
2023-03-10T23:47:44.794Z,76.42
2023-03-10T23:50:17.983Z,82.76
2023-03-10T23:52:45.035Z,83.42
2023-03-10T23:55:15.731Z,83.19
2023-03-10T23:57:42.378Z,84.37
